createdAt,value
2019-05-06T00:02:20.270Z,2.20
2019-05-06T00:04:50.771Z,2.03
2019-05-06T00:07:21.388Z,2.10
2019-05-06T00:09:53.895Z,2.37
2019-05-06T00:12:24.095Z,2.70
2019-05-06T00:14:54.676Z,2.87
2019-05-06T00:17:25.345Z,2.80
2019-05-06T00:19:57.102Z,3.10
2019-05-06T00:22:28.052Z,2.90
2019-05-06T00:25:05.465Z,2.43
2019-05-06T00:27:54.461Z,2.60
2019-05-06T00:30:24.964Z,2.63
2019-05-06T00:32:55.556Z,2.90
2019-05-06T00:35:26.060Z,2.87
2019-05-06T00:37:56.560Z,3.00
2019-05-06T00:40:34.032Z,2.87
2019-05-06T00:43:06.283Z,3.50
2019-05-06T00:45:36.841Z,3.53
2019-05-06T00:48:07.331Z,3.40
2019-05-06T00:50:38.040Z,3.50
2019-05-06T00:53:10.563Z,3.50
2019-05-06T00:55:41.047Z,3.47
2019-05-06T00:58:11.511Z,3.00
2019-05-06T01:00:44.171Z,3.10
2019-05-06T01:03:14.304Z,3.03
2019-05-06T01:05:44.854Z,3.47
2019-05-06T01:08:15.395Z,2.97
2019-05-06T01:10:45.860Z,2.77
2019-05-06T01:13:31.640Z,3.17
2019-05-06T01:16:04.117Z,3.20
2019-05-06T01:18:34.314Z,3.47
2019-05-06T01:21:11.014Z,3.03
2019-05-06T01:23:44.406Z,3.10
2019-05-06T01:26:17.021Z,3.20
2019-05-06T01:28:47.577Z,3.27
2019-05-06T01:31:18.290Z,3.10
2019-05-06T01:33:48.925Z,3.43
2019-05-06T01:36:19.387Z,3.47
2019-05-06T01:39:14.808Z,3.70
2019-05-06T01:42:19.648Z,3.47
2019-05-06T01:44:50.154Z,3.37
2019-05-06T01:47:20.603Z,3.30
2019-05-06T01:49:51.123Z,3.43
2019-05-06T01:52:21.603Z,3.30
2019-05-06T01:54:54.055Z,3.63
2019-05-06T01:57:24.570Z,3.70
2019-05-06T01:59:55.078Z,4.10
2019-05-06T02:02:26.939Z,5.60
2019-05-06T02:04:57.392Z,5.03
2019-05-06T02:07:27.943Z,4.83
2019-05-06T02:09:58.455Z,4.77
2019-05-06T02:12:34.620Z,4.20
2019-05-06T02:15:06.343Z,4.57
2019-05-06T02:17:36.832Z,4.57
2019-05-06T02:20:08.284Z,4.60
2019-05-06T02:22:55.463Z,4.10
2019-05-06T02:25:39.890Z,3.73
2019-05-06T02:28:10.411Z,3.93
2019-05-06T02:31:06.071Z,4.30
2019-05-06T02:34:05.308Z,4.47
2019-05-06T02:36:55.114Z,5.27
2019-05-06T02:39:26.171Z,5.13
2019-05-06T02:41:56.684Z,4.90
2019-05-06T02:44:27.256Z,4.40
2019-05-06T02:47:13.577Z,4.40
2019-05-06T02:49:47.336Z,4.50
2019-05-06T02:52:17.828Z,4.50
2019-05-06T02:54:48.329Z,4.47
2019-05-06T02:57:18.832Z,5.93
2019-05-06T02:59:49.309Z,6.60
2019-05-06T03:02:37.552Z,6.27
2019-05-06T03:04:52.917Z,6.30
2019-05-06T03:07:23.669Z,6.40
2019-05-06T03:09:54.244Z,4.73
2019-05-06T03:12:27.224Z,5.60
2019-05-06T03:14:57.682Z,6.37
2019-05-06T03:17:28.219Z,6.40
2019-05-06T03:20:03.980Z,6.03
2019-05-06T03:22:54.678Z,6.00
2019-05-06T03:25:28.399Z,5.57
2019-05-06T03:27:58.896Z,6.00
2019-05-06T03:30:29.382Z,5.67
2019-05-06T03:33:32.014Z,6.03
2019-05-06T03:35:44.287Z,5.90
2019-05-06T03:38:04.557Z,6.03
2019-05-06T03:40:37.135Z,5.63
2019-05-06T03:43:07.381Z,5.87
2019-05-06T03:46:16.859Z,5.57
2019-05-06T03:48:49.017Z,5.47
2019-05-06T03:51:19.487Z,5.57
2019-05-06T03:53:54.001Z,5.30
2019-05-06T03:56:24.321Z,4.80
2019-05-06T03:58:56.965Z,4.73
2019-05-06T04:01:28.019Z,4.97
2019-05-06T04:03:59.644Z,5.03
2019-05-06T04:06:33.269Z,4.20
2019-05-06T04:09:03.974Z,4.73
2019-05-06T04:11:36.480Z,4.93
2019-05-06T04:14:13.703Z,5.30
2019-05-06T04:17:04.537Z,5.00
2019-05-06T04:19:40.116Z,5.10
2019-05-06T04:22:33.279Z,4.80
2019-05-06T04:25:35.474Z,4.97
2019-05-06T04:28:15.019Z,5.43
2019-05-06T04:30:45.800Z,5.10
2019-05-06T04:33:17.713Z,4.73
2019-05-06T04:35:48.486Z,5.50
2019-05-06T04:38:19.408Z,4.83
2019-05-06T04:40:49.964Z,4.63
2019-05-06T04:43:26.264Z,5.30
2019-05-06T04:45:53.997Z,5.80
2019-05-06T04:48:25.010Z,4.13
2019-05-06T04:50:56.241Z,4.60
2019-05-06T04:53:27.282Z,4.90
2019-05-06T04:55:58.196Z,4.10
2019-05-06T04:58:28.939Z,4.17
2019-05-06T05:00:59.462Z,3.80
2019-05-06T05:03:30.288Z,3.67
2019-05-06T05:06:03.035Z,4.03
2019-05-06T05:08:42.586Z,3.93
2019-05-06T05:11:24.674Z,3.70
2019-05-06T05:14:06.736Z,4.00
2019-05-06T05:16:43.557Z,4.40
2019-05-06T05:19:14.851Z,3.93
2019-05-06T05:21:45.839Z,4.53
2019-05-06T05:24:16.728Z,12.97
2019-05-06T05:26:47.645Z,4.40
2019-05-06T05:29:18.393Z,4.60
2019-05-06T05:31:49.291Z,4.47
2019-05-06T05:34:19.761Z,3.70
2019-05-06T05:36:52.031Z,4.57
2019-05-06T05:39:22.602Z,3.83
2019-05-06T05:41:55.102Z,3.97
2019-05-06T05:44:29.355Z,4.50
2019-05-06T05:47:00.185Z,4.53
2019-05-06T05:49:42.082Z,4.17
2019-05-06T05:52:13.438Z,4.07
2019-05-06T05:54:45.321Z,3.70
2019-05-06T05:57:17.201Z,4.50
2019-05-06T05:59:48.771Z,4.40
2019-05-06T06:02:19.543Z,4.30
2019-05-06T06:04:54.769Z,4.13
2019-05-06T06:07:23.377Z,5.87
2019-05-06T06:10:02.702Z,7.43
2019-05-06T06:12:33.882Z,4.60
2019-05-06T06:15:24.135Z,7.83
2019-05-06T06:18:29.105Z,5.20
2019-05-06T06:21:28.257Z,4.43
2019-05-06T06:24:04.231Z,4.10
2019-05-06T06:26:35.115Z,4.00
2019-05-06T06:29:05.926Z,3.83
2019-05-06T06:31:47.993Z,4.00
2019-05-06T06:34:24.509Z,3.90
2019-05-06T06:37:16.915Z,3.83
2019-05-06T06:39:49.771Z,3.90
2019-05-06T06:42:22.207Z,3.70
2019-05-06T06:44:52.765Z,3.67
2019-05-06T06:47:23.404Z,3.67
2019-05-06T06:49:54.271Z,3.53
2019-05-06T06:52:24.986Z,3.17
2019-05-06T06:54:55.668Z,3.67
2019-05-06T06:57:34.408Z,4.13
2019-05-06T07:00:23.810Z,3.27
2019-05-06T07:03:03.418Z,3.50
2019-05-06T07:05:52.852Z,3.30
2019-05-06T07:08:33.931Z,2.77
2019-05-06T07:10:55.791Z,3.27
2019-05-06T07:13:27.253Z,2.50
2019-05-06T07:15:57.744Z,2.67
2019-05-06T07:18:28.339Z,2.93
2019-05-06T07:21:16.963Z,2.20
2019-05-06T07:23:47.547Z,2.70
2019-05-06T07:26:23.842Z,2.10
2019-05-06T07:28:54.487Z,2.30
2019-05-06T07:31:26.721Z,2.47
2019-05-06T07:33:57.452Z,2.20
2019-05-06T07:36:28.005Z,2.53
2019-05-06T07:38:58.617Z,2.47
2019-05-06T07:41:43.447Z,2.77
2019-05-06T07:44:33.198Z,2.20
2019-05-06T07:47:23.934Z,1.70
2019-05-06T07:49:55.134Z,1.77
2019-05-06T07:52:25.803Z,1.90
2019-05-06T07:54:56.282Z,1.60
2019-05-06T07:57:26.760Z,1.37
2019-05-06T07:59:57.335Z,1.57
2019-05-06T08:02:27.834Z,1.87
2019-05-06T08:05:02.636Z,1.80
2019-05-06T08:07:33.367Z,1.90
2019-05-06T08:10:04.486Z,1.90
2019-05-06T08:12:35.060Z,1.90
2019-05-06T08:15:06.597Z,1.50
2019-05-06T08:17:42.343Z,1.90
2019-05-06T08:20:14.103Z,1.60
2019-05-06T08:23:16.772Z,1.70
2019-05-06T08:25:49.509Z,1.30
2019-05-06T08:28:22.371Z,1.43
2019-05-06T08:30:53.154Z,1.23
2019-05-06T08:33:23.866Z,1.50
2019-05-06T08:36:07.519Z,1.60
2019-05-06T08:38:26.601Z,1.40
2019-05-06T08:40:58.072Z,1.40
2019-05-06T08:43:28.986Z,1.00
2019-05-06T08:45:59.496Z,1.30
2019-05-06T08:48:30.020Z,1.30
2019-05-06T08:51:09.988Z,1.27
2019-05-06T08:53:57.579Z,1.50
2019-05-06T08:56:28.232Z,1.80
2019-05-06T08:58:59.080Z,1.53
2019-05-06T09:01:36.365Z,1.10
2019-05-06T09:04:12.383Z,1.30
2019-05-06T09:06:39.934Z,1.40
2019-05-06T09:09:13.071Z,1.30
2019-05-06T09:11:43.528Z,1.33
2019-05-06T09:14:14.301Z,1.30
2019-05-06T09:16:44.860Z,1.47
2019-05-06T09:19:15.432Z,1.63
2019-05-06T09:21:46.578Z,1.87
2019-05-06T09:24:17.135Z,1.53
2019-05-06T09:26:52.922Z,1.40
2019-05-06T09:29:42.947Z,1.07
2019-05-06T09:32:26.540Z,1.40
2019-05-06T09:34:58.839Z,1.30
2019-05-06T09:37:29.327Z,1.30
2019-05-06T09:39:59.825Z,1.50
2019-05-06T09:42:32.173Z,1.40
2019-05-06T09:45:03.054Z,1.50
2019-05-06T09:47:54.522Z,1.50
2019-05-06T09:50:46.457Z,1.43
2019-05-06T09:53:25.668Z,1.50
2019-05-06T09:56:19.296Z,1.60
2019-05-06T09:58:49.816Z,1.83
2019-05-06T10:01:22.527Z,1.73
2019-05-06T10:03:53.208Z,1.50
2019-05-06T10:06:23.762Z,1.40
2019-05-06T10:08:57.399Z,1.30
2019-05-06T10:11:27.983Z,1.40
2019-05-06T10:14:00.307Z,1.37
2019-05-06T10:16:39.170Z,1.47
2019-05-06T10:19:13.227Z,1.70
2019-05-06T10:21:50.309Z,1.47
2019-05-06T10:24:20.812Z,1.67
2019-05-06T10:26:58.395Z,1.40
2019-05-06T10:30:06.898Z,1.50
2019-05-06T10:33:02.093Z,1.70
2019-05-06T10:35:32.861Z,1.60
2019-05-06T10:38:50.429Z,1.63
2019-05-06T10:41:33.035Z,1.57
2019-05-06T10:44:27.530Z,1.60
2019-05-06T10:47:02.835Z,1.37
2019-05-06T10:49:33.784Z,1.57
2019-05-06T10:52:14.255Z,1.37
2019-05-06T10:54:44.826Z,1.37
2019-05-06T10:57:32.774Z,1.23
2019-05-06T11:00:04.261Z,1.50
2019-05-06T11:02:58.641Z,1.63
2019-05-06T11:05:29.223Z,1.70
2019-05-06T11:08:03.155Z,1.60
2019-05-06T11:10:40.939Z,1.67
2019-05-06T11:13:07.842Z,1.67
2019-05-06T11:15:39.059Z,1.83
2019-05-06T11:18:09.589Z,1.90
2019-05-06T11:20:40.090Z,2.10
2019-05-06T11:23:10.581Z,1.53
2019-05-06T11:25:43.236Z,1.60
2019-05-06T11:28:35.335Z,1.73
2019-05-06T11:31:19.839Z,1.83
2019-05-06T11:34:09.352Z,1.70
2019-05-06T11:36:46.468Z,1.80
2019-05-06T11:39:16.978Z,1.63
2019-05-06T11:42:01.356Z,1.60
2019-05-06T11:44:19.781Z,1.70
2019-05-06T11:46:52.287Z,1.90
2019-05-06T11:49:23.460Z,1.80
2019-05-06T11:51:53.941Z,1.50
2019-05-06T11:54:24.846Z,1.70
2019-05-06T11:56:58.364Z,1.87
2019-05-06T11:59:27.665Z,1.63
2019-05-06T12:02:04.048Z,1.80
2019-05-06T12:04:34.738Z,1.50
2019-05-06T12:07:11.301Z,1.53
2019-05-06T12:09:37.551Z,1.53
2019-05-06T12:12:08.408Z,1.50
2019-05-06T12:14:39.094Z,1.30
2019-05-06T12:17:12.767Z,1.40
2019-05-06T12:19:43.551Z,1.43
2019-05-06T12:22:16.840Z,1.40
2019-05-06T12:24:47.503Z,1.20
2019-05-06T12:27:37.116Z,1.60
2019-05-06T12:30:22.906Z,1.53
2019-05-06T12:33:37.622Z,1.67
2019-05-06T12:36:19.996Z,1.40
2019-05-06T12:39:10.099Z,1.80
2019-05-06T12:42:16.481Z,1.90
2019-05-06T12:45:13.073Z,1.37
2019-05-06T12:47:53.389Z,1.60
2019-05-06T12:50:24.022Z,1.77
2019-05-06T12:52:57.926Z,1.67
2019-05-06T12:55:33.478Z,1.50
2019-05-06T12:58:03.434Z,1.50
2019-05-06T13:00:34.661Z,1.60
2019-05-06T13:03:05.866Z,1.80
2019-05-06T13:05:36.418Z,1.50
2019-05-06T13:08:07.341Z,1.90
2019-05-06T13:10:37.875Z,3.90
2019-05-06T13:13:08.504Z,1.80
2019-05-06T13:15:39.720Z,1.63
2019-05-06T13:18:10.278Z,1.50
2019-05-06T13:20:48.276Z,1.53
2019-05-06T13:23:22.177Z,1.90
2019-05-06T13:25:52.594Z,1.93
2019-05-06T13:28:24.272Z,1.80
2019-05-06T13:30:54.825Z,2.00
2019-05-06T13:33:34.432Z,2.37
2019-05-06T13:36:05.281Z,1.63
2019-05-06T13:38:36.378Z,2.07
2019-05-06T13:41:07.122Z,1.80
2019-05-06T13:43:43.666Z,1.67
2019-05-06T13:46:24.334Z,1.70
2019-05-06T13:49:13.325Z,2.03
2019-05-06T13:52:12.668Z,2.03
2019-05-06T13:54:43.543Z,1.90
2019-05-06T13:57:14.102Z,1.93
2019-05-06T13:59:45.728Z,2.30
2019-05-06T14:02:52.917Z,2.47
2019-05-06T14:05:22.847Z,2.00
2019-05-06T14:07:53.362Z,2.03
2019-05-06T14:10:23.877Z,1.87
2019-05-06T14:12:54.406Z,2.13
2019-05-06T14:15:24.901Z,1.73
2019-05-06T14:17:55.444Z,2.37
2019-05-06T14:20:26.350Z,2.00
2019-05-06T14:23:02.114Z,2.10
2019-05-06T14:25:54.043Z,2.10
2019-05-06T14:28:32.498Z,2.03
2019-05-06T14:31:07.126Z,1.67
2019-05-06T14:33:37.662Z,2.37
2019-05-06T14:36:08.366Z,1.97
2019-05-06T14:38:38.890Z,1.97
2019-05-06T14:41:14.314Z,2.17
2019-05-06T14:43:44.996Z,2.30
2019-05-06T14:46:15.782Z,1.70
2019-05-06T14:48:47.772Z,2.67
2019-05-06T14:51:19.564Z,2.37
2019-05-06T14:53:52.760Z,2.13
2019-05-06T14:56:33.083Z,1.70
2019-05-06T14:59:04.314Z,2.10
2019-05-06T15:01:38.675Z,2.40
2019-05-06T15:04:12.669Z,2.20
2019-05-06T15:06:43.419Z,1.97
2019-05-06T15:09:14.263Z,2.50
2019-05-06T15:11:44.745Z,2.33
2019-05-06T15:14:17.510Z,1.90
2019-05-06T15:16:52.547Z,2.10
2019-05-06T15:19:22.872Z,2.30
2019-05-06T15:21:53.807Z,2.23
2019-05-06T15:24:24.558Z,2.10
2019-05-06T15:26:55.618Z,2.30
2019-05-06T15:29:27.864Z,1.90
2019-05-06T15:32:23.049Z,2.07
2019-05-06T15:35:22.647Z,2.20
2019-05-06T15:37:56.140Z,2.40
2019-05-06T15:40:34.210Z,2.70
2019-05-06T15:43:02.809Z,2.73
2019-05-06T15:45:33.632Z,2.87
2019-05-06T15:48:04.262Z,2.93
2019-05-06T15:50:34.779Z,3.10
2019-05-06T15:53:07.161Z,3.00
2019-05-06T15:55:37.643Z,2.57
2019-05-06T15:58:13.603Z,3.40
2019-05-06T16:00:44.589Z,3.00
2019-05-06T16:03:15.080Z,3.10
2019-05-06T16:05:45.756Z,2.70
2019-05-06T16:08:16.375Z,2.83
2019-05-06T16:10:52.311Z,3.10
2019-05-06T16:13:19.374Z,2.97
2019-05-06T16:15:50.157Z,3.07
2019-05-06T16:18:23.423Z,2.47
2019-05-06T16:20:57.247Z,2.70
2019-05-06T16:23:35.345Z,2.53
2019-05-06T16:26:05.841Z,2.20
2019-05-06T16:28:36.365Z,2.40
2019-05-06T16:31:12.987Z,2.50
2019-05-06T16:33:43.633Z,2.60
2019-05-06T16:36:15.517Z,2.07
2019-05-06T16:38:46.098Z,2.33
2019-05-06T16:41:22.465Z,2.50
2019-05-06T16:43:52.493Z,2.50
2019-05-06T16:46:23.189Z,2.53
2019-05-06T16:49:02.414Z,2.30
2019-05-06T16:51:49.660Z,2.43
2019-05-06T16:54:23.462Z,2.27
2019-05-06T16:57:04.464Z,2.27
2019-05-06T16:59:36.433Z,2.47
2019-05-06T17:02:14.018Z,2.00
2019-05-06T17:05:15.066Z,2.27
2019-05-06T17:07:48.712Z,1.93
2019-05-06T17:10:22.912Z,1.90
2019-05-06T17:12:58.766Z,2.03
2019-05-06T17:15:32.203Z,2.00
2019-05-06T17:18:15.344Z,2.23
2019-05-06T17:20:47.738Z,2.10
2019-05-06T17:23:18.801Z,2.13
2019-05-06T17:25:52.095Z,2.13
2019-05-06T17:28:33.481Z,2.50
2019-05-06T17:31:25.725Z,2.77
2019-05-06T17:33:59.462Z,2.40
2019-05-06T17:36:32.933Z,2.60
2019-05-06T17:39:04.722Z,2.70
2019-05-06T17:41:45.870Z,2.80
2019-05-06T17:44:12.093Z,2.93
2019-05-06T17:47:02.686Z,3.03
2019-05-06T17:49:34.210Z,2.67
2019-05-06T17:52:11.886Z,3.03
2019-05-06T17:54:45.611Z,3.10
2019-05-06T17:57:21.738Z,2.70
2019-05-06T17:59:52.824Z,3.00
2019-05-06T18:02:26.070Z,3.37
2019-05-06T18:04:56.829Z,3.30
2019-05-06T18:07:27.644Z,3.93
2019-05-06T18:10:03.050Z,4.07
2019-05-06T18:12:33.968Z,3.37
2019-05-06T18:15:08.384Z,3.87
2019-05-06T18:17:42.631Z,5.10
2019-05-06T18:20:15.850Z,4.43
2019-05-06T18:22:52.495Z,3.60
2019-05-06T18:25:23.326Z,4.77
2019-05-06T18:27:58.683Z,4.47
2019-05-06T18:30:34.366Z,4.07
2019-05-06T18:33:06.786Z,4.27
2019-05-06T18:35:41.980Z,4.53
2019-05-06T18:38:13.219Z,3.93
2019-05-06T18:40:44.067Z,4.80
2019-05-06T18:43:15.015Z,5.07
2019-05-06T18:45:49.022Z,6.47
2019-05-06T18:48:21.967Z,6.43
2019-05-06T18:50:55.306Z,6.93
2019-05-06T18:53:29.006Z,9.77
2019-05-06T18:56:06.199Z,6.23
2019-05-06T18:58:36.954Z,4.40
2019-05-06T19:01:10.102Z,4.50
2019-05-06T19:03:53.433Z,6.03
2019-05-06T19:06:49.275Z,5.07
2019-05-06T19:09:32.543Z,4.17
2019-05-06T19:12:08.497Z,9.20
2019-05-06T19:14:39.556Z,5.03
2019-05-06T19:17:22.550Z,9.57
2019-05-06T19:19:54.359Z,5.43
2019-05-06T19:22:36.602Z,4.90
2019-05-06T19:25:08.075Z,4.70
2019-05-06T19:27:42.120Z,5.07
2019-05-06T19:30:13.639Z,5.23
2019-05-06T19:32:48.566Z,5.30
2019-05-06T19:35:19.548Z,4.13
2019-05-06T19:37:50.492Z,4.53
2019-05-06T19:40:36.792Z,4.80
2019-05-06T19:43:07.702Z,4.40
2019-05-06T19:45:47.537Z,4.63
2019-05-06T19:48:18.206Z,4.33
2019-05-06T19:50:52.665Z,8.23
2019-05-06T19:53:23.890Z,5.30
2019-05-06T19:55:56.212Z,4.77
2019-05-06T19:58:31.728Z,5.50
2019-05-06T20:01:18.031Z,4.20
2019-05-06T20:03:57.479Z,4.50
2019-05-06T20:06:49.027Z,5.00
2019-05-06T20:09:48.128Z,4.33
2019-05-06T20:12:58.413Z,4.30
2019-05-06T20:15:52.116Z,4.40
2019-05-06T20:18:23.290Z,4.23
2019-05-06T20:20:53.869Z,4.60
2019-05-06T20:23:24.486Z,5.07
2019-05-06T20:25:55.143Z,4.23
2019-05-06T20:28:25.862Z,4.70
2019-05-06T20:30:59.016Z,4.67
2019-05-06T20:33:29.637Z,5.40
2019-05-06T20:36:00.166Z,4.70
2019-05-06T20:38:30.685Z,4.43
2019-05-06T20:41:03.027Z,4.77
2019-05-06T20:43:33.610Z,4.90
2019-05-06T20:46:04.093Z,5.73
2019-05-06T20:48:34.575Z,5.10
2019-05-06T20:51:05.245Z,5.47
2019-05-06T20:53:35.756Z,5.10
2019-05-06T20:56:06.303Z,6.10
2019-05-06T20:58:36.869Z,6.50
2019-05-06T21:01:07.679Z,5.50
2019-05-06T21:03:38.181Z,5.67
2019-05-06T21:06:08.783Z,4.10
2019-05-06T21:08:42.159Z,8.53
2019-05-06T21:11:25.669Z,5.47
2019-05-06T21:13:44.965Z,4.50
2019-05-06T21:16:15.687Z,4.27
2019-05-06T21:18:46.157Z,4.23
2019-05-06T21:21:17.138Z,9.47
2019-05-06T21:23:47.693Z,9.30
2019-05-06T21:26:18.297Z,5.23
2019-05-06T21:28:52.928Z,5.30
2019-05-06T21:31:23.429Z,4.57
2019-05-06T21:33:53.944Z,5.80
2019-05-06T21:36:24.437Z,8.50
2019-05-06T21:38:55.001Z,12.30
2019-05-06T21:41:25.549Z,4.67
2019-05-06T21:43:56.095Z,4.17
2019-05-06T21:46:26.607Z,3.50
2019-05-06T21:48:57.093Z,3.20
2019-05-06T21:51:27.664Z,3.10
2019-05-06T21:53:58.156Z,3.17
2019-05-06T21:56:28.744Z,3.03
2019-05-06T21:58:59.372Z,3.23
2019-05-06T22:01:33.026Z,3.50
2019-05-06T22:04:03.464Z,3.50
2019-05-06T22:06:33.964Z,3.33
2019-05-06T22:09:06.750Z,3.23
2019-05-06T22:11:37.360Z,3.13
2019-05-06T22:14:07.896Z,3.57
2019-05-06T22:16:39.869Z,3.50
2019-05-06T22:19:12.131Z,3.30
2019-05-06T22:22:00.048Z,3.63
2019-05-06T22:24:58.569Z,3.00
2019-05-06T22:27:29.866Z,3.70
2019-05-06T22:30:00.368Z,3.50
2019-05-06T22:32:33.616Z,3.43
2019-05-06T22:35:04.725Z,3.53
2019-05-06T22:37:35.390Z,3.97
2019-05-06T22:40:06.248Z,3.60
2019-05-06T22:42:36.959Z,3.33
2019-05-06T22:45:08.104Z,3.33
2019-05-06T22:47:42.071Z,2.83
2019-05-06T22:50:13.824Z,3.30
2019-05-06T22:52:44.394Z,3.30
2019-05-06T22:55:15.116Z,3.47
2019-05-06T22:57:45.835Z,3.20
2019-05-06T23:00:23.656Z,3.53
2019-05-06T23:02:59.681Z,2.87
2019-05-06T23:05:32.465Z,3.67
2019-05-06T23:08:02.831Z,3.60
2019-05-06T23:10:33.827Z,3.20
2019-05-06T23:13:04.380Z,3.50
2019-05-06T23:15:34.835Z,3.27
2019-05-06T23:18:05.348Z,3.53
2019-05-06T23:20:36.196Z,3.70
2019-05-06T23:23:06.787Z,3.60
2019-05-06T23:25:38.233Z,3.20
2019-05-06T23:28:08.827Z,3.50
2019-05-06T23:30:39.538Z,3.60
2019-05-06T23:33:11.776Z,3.43
2019-05-06T23:35:43.981Z,3.53
2019-05-06T23:39:08.623Z,3.53
2019-05-06T23:42:32.843Z,3.60
2019-05-06T23:45:57.432Z,3.37
2019-05-06T23:49:22.271Z,3.40
2019-05-06T23:52:46.887Z,3.43
2019-05-06T23:56:13.120Z,3.77
2019-05-06T23:58:43.445Z,3.70
